sensor_id;sensor_type;location;lat;lon;timestamp;pressure;altitude;pressure_sealevel;temperature;humidity
30636;BME280;17400;52.392;9.750;2022-09-06T00:01:11;101243.16;;;21.23;82.95
30636;BME280;17400;52.392;9.750;2022-09-06T00:03:39;101247.25;;;21.20;84.50
30636;BME280;17400;52.392;9.750;2022-09-06T00:06:09;101253.13;;;21.07;85.67
30636;BME280;17400;52.392;9.750;2022-09-06T00:08:37;101257.16;;;20.99;86.66
30636;BME280;17400;52.392;9.750;2022-09-06T00:11:05;101255.88;;;21.07;86.11
30636;BME280;17400;52.392;9.750;2022-09-06T00:13:33;101253.88;;;21.02;86.46
30636;BME280;17400;52.392;9.750;2022-09-06T00:16:06;101255.81;;;21.02;86.00
30636;BME280;17400;52.392;9.750;2022-09-06T00:18:36;101258.28;;;21.03;86.04
30636;BME280;17400;52.392;9.750;2022-09-06T00:21:12;101257.81;;;21.06;85.66
30636;BME280;17400;52.392;9.750;2022-09-06T00:23:41;101260.56;;;21.06;86.21
30636;BME280;17400;52.392;9.750;2022-09-06T00:26:08;101248.44;;;21.07;86.19
30636;BME280;17400;52.392;9.750;2022-09-06T00:28:36;101259.72;;;21.06;86.45
30636;BME280;17400;52.392;9.750;2022-09-06T00:31:09;101261.91;;;21.04;86.07
30636;BME280;17400;52.392;9.750;2022-09-06T00:33:38;101255.81;;;21.02;86.92
30636;BME280;17400;52.392;9.750;2022-09-06T00:36:06;101261.06;;;21.03;86.70
30636;BME280;17400;52.392;9.750;2022-09-06T00:38:35;101251.31;;;20.95;87.27
30636;BME280;17400;52.392;9.750;2022-09-06T00:41:03;101244.72;;;20.96;87.14
30636;BME280;17400;52.392;9.750;2022-09-06T00:43:31;101249.66;;;20.94;87.21
30636;BME280;17400;52.392;9.750;2022-09-06T00:46:00;101242.66;;;20.87;87.77
30636;BME280;17400;52.392;9.750;2022-09-06T00:48:29;101242.66;;;20.87;87.71
30636;BME280;17400;52.392;9.750;2022-09-06T00:51:00;101239.84;;;20.82;88.07
30636;BME280;17400;52.392;9.750;2022-09-06T00:53:29;101253.94;;;20.85;87.76
30636;BME280;17400;52.392;9.750;2022-09-06T00:55:57;101252.81;;;20.86;87.14
30636;BME280;17400;52.392;9.750;2022-09-06T00:58:25;101251.41;;;20.84;88.24
30636;BME280;17400;52.392;9.750;2022-09-06T01:00:53;101254.50;;;20.87;88.00
30636;BME280;17400;52.392;9.750;2022-09-06T01:03:22;101252.53;;;20.83;88.12
30636;BME280;17400;52.392;9.750;2022-09-06T01:05:59;101254.13;;;20.78;88.80
30636;BME280;17400;52.392;9.750;2022-09-06T01:08:41;101255.28;;;20.83;89.09
30636;BME280;17400;52.392;9.750;2022-09-06T01:11:36;101246.00;;;20.72;89.86
30636;BME280;17400;52.392;9.750;2022-09-06T01:14:14;101246.25;;;20.70;91.83
30636;BME280;17400;52.392;9.750;2022-09-06T01:16:50;101235.16;;;20.65;92.15
30636;BME280;17400;52.392;9.750;2022-09-06T01:19:45;101241.09;;;20.57;93.42
30636;BME280;17400;52.392;9.750;2022-09-06T01:22:42;101241.34;;;20.55;93.85
30636;BME280;17400;52.392;9.750;2022-09-06T01:25:32;101231.16;;;20.56;94.41
30636;BME280;17400;52.392;9.750;2022-09-06T01:28:26;101232.84;;;20.57;94.27
30636;BME280;17400;52.392;9.750;2022-09-06T01:31:05;101229.53;;;20.55;93.35
30636;BME280;17400;52.392;9.750;2022-09-06T01:33:42;101224.50;;;20.52;92.53
30636;BME280;17400;52.392;9.750;2022-09-06T01:36:16;101220.25;;;20.44;93.20
30636;BME280;17400;52.392;9.750;2022-09-06T01:38:45;101222.25;;;20.48;92.41
30636;BME280;17400;52.392;9.750;2022-09-06T01:41:13;101218.88;;;20.41;92.14
30636;BME280;17400;52.392;9.750;2022-09-06T01:43:45;101210.66;;;20.46;91.93
30636;BME280;17400;52.392;9.750;2022-09-06T01:46:18;101219.19;;;20.28;93.30
30636;BME280;17400;52.392;9.750;2022-09-06T01:48:57;101216.50;;;20.33;94.25
30636;BME280;17400;52.392;9.750;2022-09-06T01:51:30;101221.69;;;20.29;93.87
30636;BME280;17400;52.392;9.750;2022-09-06T01:54:14;101212.19;;;20.20;93.80
30636;BME280;17400;52.392;9.750;2022-09-06T01:56:54;101213.50;;;20.35;92.30
30636;BME280;17400;52.392;9.750;2022-09-06T01:59:40;101215.88;;;20.26;92.08
30636;BME280;17400;52.392;9.750;2022-09-06T02:02:18;101199.38;;;20.26;91.46
30636;BME280;17400;52.392;9.750;2022-09-06T02:04:51;101202.03;;;20.21;91.75
30636;BME280;17400;52.392;9.750;2022-09-06T02:07:24;101190.13;;;20.15;91.37
30636;BME280;17400;52.392;9.750;2022-09-06T02:09:59;101188.72;;;20.12;91.42
30636;BME280;17400;52.392;9.750;2022-09-06T02:12:31;101189.38;;;20.20;91.04
30636;BME280;17400;52.392;9.750;2022-09-06T02:15:03;101182.69;;;20.16;90.54
30636;BME280;17400;52.392;9.750;2022-09-06T02:17:34;101194.03;;;20.19;90.56
30636;BME280;17400;52.392;9.750;2022-09-06T02:20:07;101200.00;;;20.16;90.60
30636;BME280;17400;52.392;9.750;2022-09-06T02:22:38;101205.28;;;20.18;90.31
30636;BME280;17400;52.392;9.750;2022-09-06T02:25:09;101191.13;;;20.26;89.51
30636;BME280;17400;52.392;9.750;2022-09-06T02:27:38;101198.28;;;20.27;89.38
30636;BME280;17400;52.392;9.750;2022-09-06T02:30:09;101199.38;;;20.26;89.00
30636;BME280;17400;52.392;9.750;2022-09-06T02:32:39;101200.94;;;20.22;88.80
30636;BME280;17400;52.392;9.750;2022-09-06T02:35:12;101188.47;;;20.14;88.84
30636;BME280;17400;52.392;9.750;2022-09-06T02:37:41;101194.59;;;20.04;89.07
30636;BME280;17400;52.392;9.750;2022-09-06T02:40:10;101185.63;;;20.09;88.60
30636;BME280;17400;52.392;9.750;2022-09-06T02:42:39;101185.84;;;19.90;89.33
30636;BME280;17400;52.392;9.750;2022-09-06T02:45:09;101180.09;;;19.92;88.97
30636;BME280;17400;52.392;9.750;2022-09-06T02:47:36;101192.69;;;19.88;89.25
30636;BME280;17400;52.392;9.750;2022-09-06T02:50:05;101196.59;;;19.92;88.82
30636;BME280;17400;52.392;9.750;2022-09-06T02:52:33;101191.19;;;19.97;88.81
30636;BME280;17400;52.392;9.750;2022-09-06T02:55:01;101186.84;;;20.01;90.12
30636;BME280;17400;52.392;9.750;2022-09-06T02:57:29;101191.00;;;19.87;94.91
30636;BME280;17400;52.392;9.750;2022-09-06T02:59:57;101186.09;;;19.89;95.41
30636;BME280;17400;52.392;9.750;2022-09-06T03:02:26;101183.75;;;19.80;95.86
30636;BME280;17400;52.392;9.750;2022-09-06T03:04:54;101179.56;;;19.78;96.24
30636;BME280;17400;52.392;9.750;2022-09-06T03:07:24;101176.34;;;19.81;97.37
30636;BME280;17400;52.392;9.750;2022-09-06T03:09:51;101171.81;;;19.75;96.68
30636;BME280;17400;52.392;9.750;2022-09-06T03:12:19;101176.38;;;19.69;96.70
30636;BME280;17400;52.392;9.750;2022-09-06T03:14:47;101167.53;;;19.67;95.42
30636;BME280;17400;52.392;9.750;2022-09-06T03:17:20;101170.53;;;19.65;95.55
30636;BME280;17400;52.392;9.750;2022-09-06T03:19:49;101168.16;;;19.69;95.88
30636;BME280;17400;52.392;9.750;2022-09-06T03:22:16;101167.03;;;19.53;94.82
30636;BME280;17400;52.392;9.750;2022-09-06T03:24:44;101171.78;;;19.58;92.71
30636;BME280;17400;52.392;9.750;2022-09-06T03:27:12;101169.19;;;19.51;92.47
30636;BME280;17400;52.392;9.750;2022-09-06T03:29:39;101175.44;;;19.46;92.67
30636;BME280;17400;52.392;9.750;2022-09-06T03:32:07;101185.09;;;19.49;92.32
30636;BME280;17400;52.392;9.750;2022-09-06T03:34:34;101189.16;;;19.46;91.39
30636;BME280;17400;52.392;9.750;2022-09-06T03:37:04;101180.91;;;19.46;91.38
30636;BME280;17400;52.392;9.750;2022-09-06T03:39:31;101181.63;;;19.42;90.54
30636;BME280;17400;52.392;9.750;2022-09-06T03:41:59;101194.41;;;19.48;90.12
30636;BME280;17400;52.392;9.750;2022-09-06T03:44:27;101186.41;;;19.46;89.31
30636;BME280;17400;52.392;9.750;2022-09-06T03:46:54;101187.22;;;19.47;88.68
30636;BME280;17400;52.392;9.750;2022-09-06T03:49:22;101175.91;;;19.43;88.57
30636;BME280;17400;52.392;9.750;2022-09-06T03:51:50;101178.75;;;19.48;88.71
30636;BME280;17400;52.392;9.750;2022-09-06T03:54:19;101168.75;;;19.42;88.11
30636;BME280;17400;52.392;9.750;2022-09-06T03:56:46;101167.59;;;19.38;88.02
30636;BME280;17400;52.392;9.750;2022-09-06T03:59:14;101175.72;;;19.33;87.72
30636;BME280;17400;52.392;9.750;2022-09-06T04:01:41;101179.03;;;19.35;87.62
30636;BME280;17400;52.392;9.750;2022-09-06T04:04:09;101180.59;;;19.31;87.66
30636;BME280;17400;52.392;9.750;2022-09-06T04:06:37;101186.44;;;19.35;86.59
30636;BME280;17400;52.392;9.750;2022-09-06T04:09:04;101186.19;;;19.36;86.99
30636;BME280;17400;52.392;9.750;2022-09-06T04:11:33;101186.81;;;19.38;86.42
30636;BME280;17400;52.392;9.750;2022-09-06T04:14:01;101183.97;;;19.33;86.13
30636;BME280;17400;52.392;9.750;2022-09-06T04:16:29;101186.09;;;19.31;86.20
30636;BME280;17400;52.392;9.750;2022-09-06T04:18:56;101176.84;;;19.20;86.48
30636;BME280;17400;52.392;9.750;2022-09-06T04:21:26;101188.09;;;19.07;87.26
30636;BME280;17400;52.392;9.750;2022-09-06T04:23:54;101185.47;;;19.12;86.67
30636;BME280;17400;52.392;9.750;2022-09-06T04:26:22;101177.69;;;19.09;86.84
30636;BME280;17400;52.392;9.750;2022-09-06T04:28:51;101177.56;;;19.04;86.86
30636;BME280;17400;52.392;9.750;2022-09-06T04:31:18;101176.06;;;18.96;87.24
30636;BME280;17400;52.392;9.750;2022-09-06T04:33:46;101178.09;;;18.89;87.79
30636;BME280;17400;52.392;9.750;2022-09-06T04:36:14;101175.09;;;18.90;87.40
30636;BME280;17400;52.392;9.750;2022-09-06T04:38:42;101169.97;;;18.94;86.98
30636;BME280;17400;52.392;9.750;2022-09-06T04:41:12;101167.34;;;18.87;87.19
30636;BME280;17400;52.392;9.750;2022-09-06T04:43:40;101169.97;;;18.82;87.17
30636;BME280;17400;52.392;9.750;2022-09-06T04:46:14;101166.53;;;18.87;86.96
30636;BME280;17400;52.392;9.750;2022-09-06T04:48:44;101170.47;;;18.91;86.61
30636;BME280;17400;52.392;9.750;2022-09-06T04:51:12;101169.41;;;18.92;86.31
30636;BME280;17400;52.392;9.750;2022-09-06T04:53:39;101171.66;;;18.95;85.99
30636;BME280;17400;52.392;9.750;2022-09-06T04:56:13;101172.16;;;18.92;86.07
30636;BME280;17400;52.392;9.750;2022-09-06T04:58:42;101170.81;;;18.94;85.86
30636;BME280;17400;52.392;9.750;2022-09-06T05:01:11;101175.09;;;18.78;86.80
30636;BME280;17400;52.392;9.750;2022-09-06T05:03:39;101175.47;;;18.82;86.15
30636;BME280;17400;52.392;9.750;2022-09-06T05:06:08;101171.03;;;18.81;86.17
30636;BME280;17400;52.392;9.750;2022-09-06T05:08:37;101157.94;;;18.83;85.92
30636;BME280;17400;52.392;9.750;2022-09-06T05:11:06;101159.81;;;18.82;85.53
30636;BME280;17400;52.392;9.750;2022-09-06T05:13:34;101172.16;;;18.68;86.18
30636;BME280;17400;52.392;9.750;2022-09-06T05:16:03;101174.97;;;18.73;86.29
30636;BME280;17400;52.392;9.750;2022-09-06T05:18:33;101165.81;;;18.68;86.23
30636;BME280;17400;52.392;9.750;2022-09-06T05:21:01;101172.47;;;18.72;85.96
30636;BME280;17400;52.392;9.750;2022-09-06T05:23:28;101160.81;;;18.76;85.68
30636;BME280;17400;52.392;9.750;2022-09-06T05:25:56;101160.94;;;18.70;85.74
30636;BME280;17400;52.392;9.750;2022-09-06T05:28:24;101153.41;;;18.77;85.15
30636;BME280;17400;52.392;9.750;2022-09-06T05:30:51;101158.31;;;18.75;85.32
30636;BME280;17400;52.392;9.750;2022-09-06T05:33:21;101166.19;;;18.71;85.37
30636;BME280;17400;52.392;9.750;2022-09-06T05:35:50;101145.94;;;18.60;85.94
30636;BME280;17400;52.392;9.750;2022-09-06T05:38:18;101156.53;;;18.57;86.25
30636;BME280;17400;52.392;9.750;2022-09-06T05:40:45;101156.41;;;18.63;85.80
30636;BME280;17400;52.392;9.750;2022-09-06T05:43:16;101147.94;;;18.65;85.69
30636;BME280;17400;52.392;9.750;2022-09-06T05:45:43;101145.44;;;18.63;85.58
30636;BME280;17400;52.392;9.750;2022-09-06T05:48:11;101150.22;;;18.68;85.22
30636;BME280;17400;52.392;9.750;2022-09-06T05:50:39;101159.75;;;18.65;85.64
30636;BME280;17400;52.392;9.750;2022-09-06T05:53:08;101151.75;;;18.64;85.09
30636;BME280;17400;52.392;9.750;2022-09-06T05:55:35;101172.03;;;18.75;85.05
30636;BME280;17400;52.392;9.750;2022-09-06T05:58:08;101178.81;;;18.84;84.33
30636;BME280;17400;52.392;9.750;2022-09-06T06:00:36;101185.47;;;18.88;83.85
30636;BME280;17400;52.392;9.750;2022-09-06T06:03:03;101203.38;;;18.91;83.54
30636;BME280;17400;52.392;9.750;2022-09-06T06:05:31;101219.13;;;18.95;83.47
30636;BME280;17400;52.392;9.750;2022-09-06T06:07:58;101250.47;;;19.00;82.93
30636;BME280;17400;52.392;9.750;2022-09-06T06:10:27;101266.22;;;19.04;82.75
30636;BME280;17400;52.392;9.750;2022-09-06T06:12:56;101270.97;;;19.09;82.51
30636;BME280;17400;52.392;9.750;2022-09-06T06:15:23;101267.03;;;19.17;85.08
30636;BME280;17400;52.392;9.750;2022-09-06T06:17:51;101253.78;;;19.25;85.58
30636;BME280;17400;52.392;9.750;2022-09-06T06:20:18;101259.63;;;19.29;88.84
30636;BME280;17400;52.392;9.750;2022-09-06T06:22:46;101256.91;;;19.29;89.93
30636;BME280;17400;52.392;9.750;2022-09-06T06:25:14;101263.56;;;19.33;92.23
30636;BME280;17400;52.392;9.750;2022-09-06T06:27:43;101268.06;;;19.39;95.94
30636;BME280;17400;52.392;9.750;2022-09-06T06:30:11;101270.28;;;19.13;96.88
30636;BME280;17400;52.392;9.750;2022-09-06T06:32:43;101261.56;;;18.93;98.18
30636;BME280;17400;52.392;9.750;2022-09-06T06:35:11;101260.25;;;19.07;100.00
30636;BME280;17400;52.392;9.750;2022-09-06T06:37:39;101266.22;;;18.80;100.00
30636;BME280;17400;52.392;9.750;2022-09-06T06:40:09;101249.03;;;18.50;100.00
30636;BME280;17400;52.392;9.750;2022-09-06T06:42:37;101249.00;;;18.26;100.00
30636;BME280;17400;52.392;9.750;2022-09-06T06:45:07;101237.09;;;18.44;100.00
30636;BME280;17400;52.392;9.750;2022-09-06T06:47:34;101220.53;;;18.39;100.00
30636;BME280;17400;52.392;9.750;2022-09-06T06:50:03;101229.38;;;18.53;100.00
30636;BME280;17400;52.392;9.750;2022-09-06T06:52:30;101226.16;;;18.68;100.00
30636;BME280;17400;52.392;9.750;2022-09-06T06:54:58;101218.16;;;18.78;100.00
30636;BME280;17400;52.392;9.750;2022-09-06T06:57:26;101218.03;;;18.61;100.00
30636;BME280;17400;52.392;9.750;2022-09-06T06:59:53;101224.66;;;18.18;100.00
30636;BME280;17400;52.392;9.750;2022-09-06T07:02:22;101213.78;;;17.69;100.00
30636;BME280;17400;52.392;9.750;2022-09-06T07:04:50;101224.44;;;17.46;100.00
30636;BME280;17400;52.392;9.750;2022-09-06T07:07:18;101224.38;;;17.16;100.00
30636;BME280;17400;52.392;9.750;2022-09-06T07:10:06;101219.25;;;17.20;100.00
30636;BME280;17400;52.392;9.750;2022-09-06T07:12:54;101231.66;;;17.22;100.00
30636;BME280;17400;52.392;9.750;2022-09-06T07:15:21;101230.91;;;17.34;100.00
30636;BME280;17400;52.392;9.750;2022-09-06T07:17:53;101237.03;;;17.47;100.00
30636;BME280;17400;52.392;9.750;2022-09-06T07:20:20;101243.72;;;17.52;100.00
30636;BME280;17400;52.392;9.750;2022-09-06T07:22:57;101238.56;;;17.25;100.00
30636;BME280;17400;52.392;9.750;2022-09-06T07:25:45;101258.19;;;17.22;100.00
30636;BME280;17400;52.392;9.750;2022-09-06T07:28:13;101245.34;;;17.22;100.00
30636;BME280;17400;52.392;9.750;2022-09-06T07:30:40;101250.13;;;17.27;100.00
30636;BME280;17400;52.392;9.750;2022-09-06T07:33:09;101248.75;;;17.36;100.00
30636;BME280;17400;52.392;9.750;2022-09-06T07:35:37;101234.28;;;17.47;100.00
30636;BME280;17400;52.392;9.750;2022-09-06T07:38:05;101233.50;;;17.59;100.00
30636;BME280;17400;52.392;9.750;2022-09-06T07:40:33;101229.47;;;17.61;100.00
30636;BME280;17400;52.392;9.750;2022-09-06T07:43:00;101215.59;;;17.75;100.00
30636;BME280;17400;52.392;9.750;2022-09-06T07:45:28;101229.34;;;17.87;100.00
30636;BME280;17400;52.392;9.750;2022-09-06T07:47:56;101226.28;;;17.95;100.00
30636;BME280;17400;52.392;9.750;2022-09-06T07:50:27;101227.03;;;18.02;100.00
30636;BME280;17400;52.392;9.750;2022-09-06T07:53:12;101228.47;;;18.05;100.00
30636;BME280;17400;52.392;9.750;2022-09-06T07:55:48;101235.81;;;17.92;100.00
30636;BME280;17400;52.392;9.750;2022-09-06T07:58:16;101244.88;;;17.93;100.00
30636;BME280;17400;52.392;9.750;2022-09-06T08:00:44;101240.44;;;17.92;100.00
30636;BME280;17400;52.392;9.750;2022-09-06T08:03:11;101233.44;;;17.96;100.00
30636;BME280;17400;52.392;9.750;2022-09-06T08:05:40;101250.72;;;17.78;100.00
30636;BME280;17400;52.392;9.750;2022-09-06T08:08:28;101252.34;;;17.67;100.00
30636;BME280;17400;52.392;9.750;2022-09-06T08:11:15;101247.75;;;17.49;100.00
30636;BME280;17400;52.392;9.750;2022-09-06T08:13:48;101236.63;;;17.62;100.00
30636;BME280;17400;52.392;9.750;2022-09-06T08:16:16;101234.81;;;17.56;100.00
30636;BME280;17400;52.392;9.750;2022-09-06T08:18:49;101235.81;;;17.74;100.00
30636;BME280;17400;52.392;9.750;2022-09-06T08:21:20;101233.00;;;17.50;100.00
30636;BME280;17400;52.392;9.750;2022-09-06T08:23:50;101219.69;;;17.54;100.00
30636;BME280;17400;52.392;9.750;2022-09-06T08:26:20;101222.53;;;17.28;100.00
30636;BME280;17400;52.392;9.750;2022-09-06T08:28:52;101219.69;;;17.54;100.00
30636;BME280;17400;52.392;9.750;2022-09-06T08:31:20;101228.78;;;17.66;100.00
30636;BME280;17400;52.392;9.750;2022-09-06T08:33:48;101223.97;;;17.80;100.00
30636;BME280;17400;52.392;9.750;2022-09-06T08:36:19;101230.22;;;17.69;100.00
30636;BME280;17400;52.392;9.750;2022-09-06T08:38:47;101219.78;;;17.77;100.00
30636;BME280;17400;52.392;9.750;2022-09-06T08:41:22;101231.25;;;17.86;100.00
30636;BME280;17400;52.392;9.750;2022-09-06T08:43:52;101230.00;;;18.01;100.00
30636;BME280;17400;52.392;9.750;2022-09-06T08:46:46;101232.88;;;18.18;100.00
30636;BME280;17400;52.392;9.750;2022-09-06T08:49:17;101241.25;;;18.35;100.00
30636;BME280;17400;52.392;9.750;2022-09-06T08:52:02;101246.75;;;18.58;100.00
30636;BME280;17400;52.392;9.750;2022-09-06T08:54:37;101248.44;;;18.71;100.00
30636;BME280;17400;52.392;9.750;2022-09-06T08:57:09;101240.47;;;18.81;100.00
30636;BME280;17400;52.392;9.750;2022-09-06T08:59:42;101244.53;;;18.91;100.00
30636;BME280;17400;52.392;9.750;2022-09-06T09:02:12;101229.38;;;19.00;100.00
30636;BME280;17400;52.392;9.750;2022-09-06T09:04:44;101229.97;;;19.02;100.00
30636;BME280;17400;52.392;9.750;2022-09-06T09:07:32;101225.66;;;19.06;100.00
30636;BME280;17400;52.392;9.750;2022-09-06T09:10:06;101222.09;;;19.06;100.00
30636;BME280;17400;52.392;9.750;2022-09-06T09:12:40;101215.41;;;19.02;100.00
30636;BME280;17400;52.392;9.750;2022-09-06T09:15:12;101219.09;;;18.84;100.00
30636;BME280;17400;52.392;9.750;2022-09-06T09:17:42;101203.81;;;18.88;100.00
30636;BME280;17400;52.392;9.750;2022-09-06T09:20:10;101206.38;;;18.89;100.00
30636;BME280;17400;52.392;9.750;2022-09-06T09:22:40;101210.56;;;18.92;100.00
30636;BME280;17400;52.392;9.750;2022-09-06T09:25:18;101202.63;;;19.07;100.00
30636;BME280;17400;52.392;9.750;2022-09-06T09:27:47;101206.53;;;19.23;100.00
30636;BME280;17400;52.392;9.750;2022-09-06T09:30:23;101209.72;;;19.32;100.00
30636;BME280;17400;52.392;9.750;2022-09-06T09:33:23;101208.41;;;19.35;100.00
30636;BME280;17400;52.392;9.750;2022-09-06T09:35:52;101194.16;;;19.50;100.00
30636;BME280;17400;52.392;9.750;2022-09-06T09:38:24;101191.00;;;19.58;100.00
30636;BME280;17400;52.392;9.750;2022-09-06T09:40:54;101182.47;;;19.71;100.00
30636;BME280;17400;52.392;9.750;2022-09-06T09:43:24;101176.56;;;19.79;100.00
30636;BME280;17400;52.392;9.750;2022-09-06T09:46:13;101181.28;;;19.96;100.00
30636;BME280;17400;52.392;9.750;2022-09-06T09:48:44;101182.28;;;19.90;100.00
30636;BME280;17400;52.392;9.750;2022-09-06T09:51:19;101163.31;;;19.76;98.54
30636;BME280;17400;52.392;9.750;2022-09-06T09:53:56;101166.38;;;19.92;100.00
30636;BME280;17400;52.392;9.750;2022-09-06T09:56:28;101161.88;;;20.20;100.00
30636;BME280;17400;52.392;9.750;2022-09-06T09:58:59;101166.81;;;20.01;100.00
30636;BME280;17400;52.392;9.750;2022-09-06T10:01:31;101170.59;;;19.83;99.00
30636;BME280;17400;52.392;9.750;2022-09-06T10:04:03;101167.63;;;19.72;100.00
30636;BME280;17400;52.392;9.750;2022-09-06T10:06:51;101161.41;;;19.77;98.34
30636;BME280;17400;52.392;9.750;2022-09-06T10:09:39;101160.97;;;19.68;96.15
30636;BME280;17400;52.392;9.750;2022-09-06T10:12:14;101157.78;;;19.42;96.83
30636;BME280;17400;52.392;9.750;2022-09-06T10:14:43;101159.00;;;19.35;98.44
30636;BME280;17400;52.392;9.750;2022-09-06T10:17:20;101159.19;;;19.45;98.35
30636;BME280;17400;52.392;9.750;2022-09-06T10:19:54;101153.31;;;19.53;98.32
30636;BME280;17400;52.392;9.750;2022-09-06T10:22:26;101167.00;;;19.36;96.35
30636;BME280;17400;52.392;9.750;2022-09-06T10:25:13;101157.78;;;19.42;97.76
30636;BME280;17400;52.392;9.750;2022-09-06T10:27:57;101150.47;;;19.48;96.91
30636;BME280;17400;52.392;9.750;2022-09-06T10:30:40;101146.59;;;19.61;97.03
30636;BME280;17400;52.392;9.750;2022-09-06T10:33:23;101137.09;;;19.52;92.43
30636;BME280;17400;52.392;9.750;2022-09-06T10:35:55;101137.66;;;19.54;91.93
30636;BME280;17400;52.392;9.750;2022-09-06T10:38:37;101141.56;;;19.58;91.82
30636;BME280;17400;52.392;9.750;2022-09-06T10:41:25;101131.03;;;19.67;93.62
30636;BME280;17400;52.392;9.750;2022-09-06T10:44:08;101131.44;;;19.58;94.20
30636;BME280;17400;52.392;9.750;2022-09-06T10:46:43;101119.22;;;19.66;93.11
30636;BME280;17400;52.392;9.750;2022-09-06T10:49:15;101134.53;;;19.62;91.39
30636;BME280;17400;52.392;9.750;2022-09-06T10:51:45;101124.00;;;19.59;93.83
30636;BME280;17400;52.392;9.750;2022-09-06T10:54:17;101120.44;;;19.58;92.31
30636;BME280;17400;52.392;9.750;2022-09-06T10:56:52;101127.38;;;19.61;90.73
30636;BME280;17400;52.392;9.750;2022-09-06T10:59:25;101127.75;;;19.53;91.50
30636;BME280;17400;52.392;9.750;2022-09-06T11:02:14;101121.72;;;19.68;90.67
30636;BME280;17400;52.392;9.750;2022-09-06T11:04:48;101117.72;;;19.75;89.34
30636;BME280;17400;52.392;9.750;2022-09-06T11:07:38;101119.91;;;19.90;87.53
30636;BME280;17400;52.392;9.750;2022-09-06T11:10:14;101123.47;;;19.91;85.53
30636;BME280;17400;52.392;9.750;2022-09-06T11:12:48;101113.66;;;19.95;83.08
30636;BME280;17400;52.392;9.750;2022-09-06T11:15:18;101126.22;;;20.08;83.20
30636;BME280;17400;52.392;9.750;2022-09-06T11:17:50;101121.88;;;20.29;81.18
30636;BME280;17400;52.392;9.750;2022-09-06T11:20:24;101120.19;;;20.45;80.79
30636;BME280;17400;52.392;9.750;2022-09-06T11:23:24;101118.31;;;20.28;78.77
30636;BME280;17400;52.392;9.750;2022-09-06T11:26:07;101120.97;;;20.40;80.86
30636;BME280;17400;52.392;9.750;2022-09-06T11:28:45;101114.59;;;20.40;79.69
30636;BME280;17400;52.392;9.750;2022-09-06T11:31:21;101115.00;;;20.48;77.70
30636;BME280;17400;52.392;9.750;2022-09-06T11:34:18;101103.72;;;20.67;77.23
30636;BME280;17400;52.392;9.750;2022-09-06T11:36:49;101097.53;;;20.77;77.46
30636;BME280;17400;52.392;9.750;2022-09-06T11:39:26;101096.31;;;20.90;75.66
30636;BME280;17400;52.392;9.750;2022-09-06T11:42:40;101099.84;;;21.12;73.92
30636;BME280;17400;52.392;9.750;2022-09-06T11:45:17;101102.47;;;21.24;73.11
30636;BME280;17400;52.392;9.750;2022-09-06T11:47:48;101097.69;;;21.42;72.31
30636;BME280;17400;52.392;9.750;2022-09-06T11:50:58;101092.13;;;21.64;70.09
30636;BME280;17400;52.392;9.750;2022-09-06T11:53:29;101088.69;;;21.79;70.48
30636;BME280;17400;52.392;9.750;2022-09-06T11:56:21;101087.56;;;21.80;68.58
30636;BME280;17400;52.392;9.750;2022-09-06T11:58:55;101080.81;;;21.98;69.51
30636;BME280;17400;52.392;9.750;2022-09-06T12:01:38;101074.91;;;22.22;68.82
30636;BME280;17400;52.392;9.750;2022-09-06T12:04:09;101078.81;;;22.26;66.04
30636;BME280;17400;52.392;9.750;2022-09-06T12:06:40;101082.13;;;22.33;65.98
30636;BME280;17400;52.392;9.750;2022-09-06T12:09:29;101079.19;;;22.45;65.79
30636;BME280;17400;52.392;9.750;2022-09-06T12:11:58;101087.00;;;22.58;67.38
30636;BME280;17400;52.392;9.750;2022-09-06T12:14:32;101074.09;;;22.74;65.02
30636;BME280;17400;52.392;9.750;2022-09-06T12:17:22;101079.66;;;22.90;65.42
30636;BME280;17400;52.392;9.750;2022-09-06T12:19:55;101080.53;;;23.01;65.32
30636;BME280;17400;52.392;9.750;2022-09-06T12:22:51;101078.03;;;23.04;62.21
30636;BME280;17400;52.392;9.750;2022-09-06T12:25:49;101071.97;;;23.12;62.42
30636;BME280;17400;52.392;9.750;2022-09-06T12:28:42;101078.16;;;23.30;61.60
30636;BME280;17400;52.392;9.750;2022-09-06T12:31:22;101068.47;;;23.48;60.85
30636;BME280;17400;52.392;9.750;2022-09-06T12:33:51;101063.81;;;23.59;59.98
30636;BME280;17400;52.392;9.750;2022-09-06T12:36:23;101063.25;;;23.77;59.55
30636;BME280;17400;52.392;9.750;2022-09-06T12:38:59;101062.13;;;23.78;59.01
30636;BME280;17400;52.392;9.750;2022-09-06T12:41:29;101066.00;;;23.72;60.08
30636;BME280;17400;52.392;9.750;2022-09-06T12:43:58;101062.13;;;23.78;58.05
30636;BME280;17400;52.392;9.750;2022-09-06T12:46:27;101057.19;;;23.91;59.01
30636;BME280;17400;52.392;9.750;2022-09-06T12:49:05;101053.84;;;24.04;58.21
30636;BME280;17400;52.392;9.750;2022-09-06T12:51:35;101053.53;;;24.16;58.39
30636;BME280;17400;52.392;9.750;2022-09-06T12:54:18;101053.22;;;24.23;56.65
30636;BME280;17400;52.392;9.750;2022-09-06T12:56:47;101043.25;;;24.27;57.69
30636;BME280;17400;52.392;9.750;2022-09-06T12:59:17;101044.06;;;24.33;57.36
30636;BME280;17400;52.392;9.750;2022-09-06T13:01:51;101041.28;;;24.38;56.99
30636;BME280;17400;52.392;9.750;2022-09-06T13:04:27;101040.94;;;24.50;55.88
30636;BME280;17400;52.392;9.750;2022-09-06T13:06:59;101039.56;;;24.63;57.57
30636;BME280;17400;52.392;9.750;2022-09-06T13:09:30;101038.63;;;24.77;54.65
30636;BME280;17400;52.392;9.750;2022-09-06T13:12:04;101038.00;;;24.91;53.83
30636;BME280;17400;52.392;9.750;2022-09-06T13:14:33;101034.84;;;25.08;54.23
30636;BME280;17400;52.392;9.750;2022-09-06T13:17:02;101031.28;;;25.07;53.28